sensor_id;sensor_type;location;lat;lon;timestamp;P1;durP1;ratioP1;P2;durP2;ratioP2
15408;SDS011;7803;48.130;13.788;2024-02-16T00:01:41;5.15;;;4.65;;
15408;SDS011;7803;48.130;13.788;2024-02-16T00:04:43;5.22;;;4.72;;
15408;SDS011;7803;48.130;13.788;2024-02-16T00:07:45;5.72;;;5.13;;
15408;SDS011;7803;48.130;13.788;2024-02-16T00:10:48;5.93;;;5.43;;
15408;SDS011;7803;48.130;13.788;2024-02-16T00:13:50;6.13;;;5.55;;
15408;SDS011;7803;48.130;13.788;2024-02-16T00:16:52;6.35;;;5.75;;
15408;SDS011;7803;48.130;13.788;2024-02-16T00:19:55;6.05;;;5.45;;
15408;SDS011;7803;48.130;13.788;2024-02-16T00:22:58;6.43;;;5.82;;
15408;SDS011;7803;48.130;13.788;2024-02-16T00:26:05;6.22;;;5.63;;
15408;SDS011;7803;48.130;13.788;2024-02-16T00:29:08;6.32;;;5.72;;
15408;SDS011;7803;48.130;13.788;2024-02-16T00:32:10;7.00;;;6.30;;
15408;SDS011;7803;48.130;13.788;2024-02-16T00:35:12;6.72;;;6.03;;
15408;SDS011;7803;48.130;13.788;2024-02-16T00:38:16;6.97;;;6.28;;
15408;SDS011;7803;48.130;13.788;2024-02-16T00:41:21;7.10;;;6.40;;
15408;SDS011;7803;48.130;13.788;2024-02-16T00:44:23;6.90;;;6.20;;
15408;SDS011;7803;48.130;13.788;2024-02-16T00:47:25;6.55;;;5.95;;
15408;SDS011;7803;48.130;13.788;2024-02-16T00:50:28;6.65;;;6.05;;
15408;SDS011;7803;48.130;13.788;2024-02-16T00:53:30;6.53;;;5.90;;
15408;SDS011;7803;48.130;13.788;2024-02-16T00:56:33;6.93;;;6.32;;
15408;SDS011;7803;48.130;13.788;2024-02-16T00:59:35;7.05;;;6.35;;
15408;SDS011;7803;48.130;13.788;2024-02-16T01:02:37;7.88;;;7.13;;
15408;SDS011;7803;48.130;13.788;2024-02-16T01:05:39;7.82;;;6.93;;
15408;SDS011;7803;48.130;13.788;2024-02-16T01:08:41;7.70;;;6.90;;
15408;SDS011;7803;48.130;13.788;2024-02-16T01:11:44;7.30;;;6.60;;
15408;SDS011;7803;48.130;13.788;2024-02-16T01:14:46;7.45;;;6.75;;
15408;SDS011;7803;48.130;13.788;2024-02-16T01:17:48;7.57;;;6.82;;
15408;SDS011;7803;48.130;13.788;2024-02-16T01:20:50;7.78;;;7.07;;
15408;SDS011;7803;48.130;13.788;2024-02-16T01:23:52;8.38;;;7.50;;
15408;SDS011;7803;48.130;13.788;2024-02-16T01:26:56;8.05;;;7.25;;
15408;SDS011;7803;48.130;13.788;2024-02-16T01:29:58;8.15;;;7.35;;
15408;SDS011;7803;48.130;13.788;2024-02-16T01:33:01;8.15;;;7.35;;
15408;SDS011;7803;48.130;13.788;2024-02-16T01:36:03;7.93;;;7.18;;
15408;SDS011;7803;48.130;13.788;2024-02-16T01:39:05;7.60;;;6.90;;
15408;SDS011;7803;48.130;13.788;2024-02-16T01:42:09;8.57;;;7.78;;
15408;SDS011;7803;48.130;13.788;2024-02-16T01:45:11;8.32;;;7.53;;
15408;SDS011;7803;48.130;13.788;2024-02-16T01:48:13;8.40;;;7.60;;
15408;SDS011;7803;48.130;13.788;2024-02-16T01:51:16;8.65;;;7.75;;
15408;SDS011;7803;48.130;13.788;2024-02-16T01:54:18;8.48;;;7.68;;
15408;SDS011;7803;48.130;13.788;2024-02-16T01:57:21;8.40;;;7.60;;
15408;SDS011;7803;48.130;13.788;2024-02-16T02:00:23;8.52;;;7.72;;
15408;SDS011;7803;48.130;13.788;2024-02-16T02:03:26;8.68;;;7.88;;
15408;SDS011;7803;48.130;13.788;2024-02-16T02:06:28;8.77;;;7.95;;
15408;SDS011;7803;48.130;13.788;2024-02-16T02:09:30;8.73;;;7.93;;
15408;SDS011;7803;48.130;13.788;2024-02-16T02:12:35;8.55;;;7.75;;
15408;SDS011;7803;48.130;13.788;2024-02-16T02:15:37;9.40;;;8.40;;
15408;SDS011;7803;48.130;13.788;2024-02-16T02:18:38;8.98;;;8.07;;
15408;SDS011;7803;48.130;13.788;2024-02-16T02:21:40;8.43;;;7.63;;
15408;SDS011;7803;48.130;13.788;2024-02-16T02:24:44;8.70;;;7.82;;
15408;SDS011;7803;48.130;13.788;2024-02-16T02:27:46;8.43;;;7.63;;
15408;SDS011;7803;48.130;13.788;2024-02-16T02:30:48;8.88;;;8.07;;
15408;SDS011;7803;48.130;13.788;2024-02-16T02:33:50;9.38;;;8.43;;
15408;SDS011;7803;48.130;13.788;2024-02-16T02:36:52;8.35;;;7.63;;
15408;SDS011;7803;48.130;13.788;2024-02-16T02:39:55;9.02;;;8.13;;
15408;SDS011;7803;48.130;13.788;2024-02-16T02:42:58;8.50;;;7.70;;
15408;SDS011;7803;48.130;13.788;2024-02-16T02:46:00;9.05;;;8.15;;
15408;SDS011;7803;48.130;13.788;2024-02-16T02:49:01;8.57;;;7.72;;
15408;SDS011;7803;48.130;13.788;2024-02-16T02:52:04;8.55;;;7.75;;
15408;SDS011;7803;48.130;13.788;2024-02-16T02:55:08;8.43;;;7.65;;
15408;SDS011;7803;48.130;13.788;2024-02-16T02:58:10;8.25;;;7.50;;
15408;SDS011;7803;48.130;13.788;2024-02-16T03:01:12;8.73;;;7.93;;
15408;SDS011;7803;48.130;13.788;2024-02-16T03:04:14;8.10;;;7.35;;
15408;SDS011;7803;48.130;13.788;2024-02-16T03:07:16;8.50;;;7.70;;
15408;SDS011;7803;48.130;13.788;2024-02-16T03:10:20;8.45;;;7.57;;
15408;SDS011;7803;48.130;13.788;2024-02-16T03:13:23;8.40;;;7.55;;
15408;SDS011;7803;48.130;13.788;2024-02-16T03:16:25;8.35;;;7.55;;
15408;SDS011;7803;48.130;13.788;2024-02-16T03:19:27;8.40;;;7.60;;
15408;SDS011;7803;48.130;13.788;2024-02-16T03:22:29;8.25;;;7.45;;
15408;SDS011;7803;48.130;13.788;2024-02-16T03:25:33;8.27;;;7.47;;
15408;SDS011;7803;48.130;13.788;2024-02-16T03:28:34;8.32;;;7.53;;
15408;SDS011;7803;48.130;13.788;2024-02-16T03:31:36;8.55;;;7.75;;
15408;SDS011;7803;48.130;13.788;2024-02-16T03:34:38;7.85;;;7.15;;
15408;SDS011;7803;48.130;13.788;2024-02-16T03:37:40;8.40;;;7.60;;
15408;SDS011;7803;48.130;13.788;2024-02-16T03:40:44;7.72;;;7.03;;
15408;SDS011;7803;48.130;13.788;2024-02-16T03:43:46;8.40;;;7.60;;
15408;SDS011;7803;48.130;13.788;2024-02-16T03:46:48;7.95;;;7.25;;
15408;SDS011;7803;48.130;13.788;2024-02-16T03:49:50;8.35;;;7.55;;
15408;SDS011;7803;48.130;13.788;2024-02-16T03:52:52;8.07;;;7.28;;
15408;SDS011;7803;48.130;13.788;2024-02-16T03:55:56;8.98;;;8.07;;
15408;SDS011;7803;48.130;13.788;2024-02-16T03:58:58;8.48;;;7.68;;
15408;SDS011;7803;48.130;13.788;2024-02-16T04:02:00;8.85;;;7.97;;
15408;SDS011;7803;48.130;13.788;2024-02-16T04:05:02;8.50;;;7.70;;
15408;SDS011;7803;48.130;13.788;2024-02-16T04:08:05;8.88;;;8.02;;
15408;SDS011;7803;48.130;13.788;2024-02-16T04:11:10;8.55;;;7.75;;
15408;SDS011;7803;48.130;13.788;2024-02-16T04:14:12;8.50;;;7.70;;
15408;SDS011;7803;48.130;13.788;2024-02-16T04:17:14;8.95;;;8.10;;
15408;SDS011;7803;48.130;13.788;2024-02-16T04:20:17;9.13;;;8.23;;
15408;SDS011;7803;48.130;13.788;2024-02-16T04:23:20;8.50;;;7.68;;
15408;SDS011;7803;48.130;13.788;2024-02-16T04:26:23;8.93;;;8.02;;
15408;SDS011;7803;48.130;13.788;2024-02-16T04:29:25;8.68;;;7.88;;
15408;SDS011;7803;48.130;13.788;2024-02-16T04:32:27;9.25;;;8.35;;
15408;SDS011;7803;48.130;13.788;2024-02-16T04:35:29;9.43;;;8.43;;
15408;SDS011;7803;48.130;13.788;2024-02-16T04:38:31;8.73;;;7.93;;
15408;SDS011;7803;48.130;13.788;2024-02-16T04:41:34;9.45;;;8.55;;
15408;SDS011;7803;48.130;13.788;2024-02-16T04:44:37;9.27;;;8.38;;
15408;SDS011;7803;48.130;13.788;2024-02-16T04:47:39;9.35;;;8.45;;
15408;SDS011;7803;48.130;13.788;2024-02-16T04:50:41;8.90;;;8.00;;
15408;SDS011;7803;48.130;13.788;2024-02-16T04:53:43;9.35;;;8.40;;
15408;SDS011;7803;48.130;13.788;2024-02-16T04:56:46;8.88;;;8.05;;
15408;SDS011;7803;48.130;13.788;2024-02-16T04:59:48;8.77;;;7.88;;
15408;SDS011;7803;48.130;13.788;2024-02-16T05:02:51;9.07;;;8.18;;
15408;SDS011;7803;48.130;13.788;2024-02-16T05:05:53;9.23;;;8.18;;
15408;SDS011;7803;48.130;13.788;2024-02-16T05:08:56;9.10;;;8.20;;
15408;SDS011;7803;48.130;13.788;2024-02-16T05:11:59;9.07;;;8.18;;
15408;SDS011;7803;48.130;13.788;2024-02-16T05:15:02;8.77;;;7.80;;
15408;SDS011;7803;48.130;13.788;2024-02-16T05:18:06;9.65;;;8.75;;
15408;SDS011;7803;48.130;13.788;2024-02-16T05:21:08;9.35;;;8.45;;
15408;SDS011;7803;48.130;13.788;2024-02-16T05:24:10;9.10;;;8.30;;
15408;SDS011;7803;48.130;13.788;2024-02-16T05:27:14;9.15;;;8.25;;
15408;SDS011;7803;48.130;13.788;2024-02-16T05:30:16;9.45;;;8.55;;
15408;SDS011;7803;48.130;13.788;2024-02-16T05:33:19;9.45;;;8.50;;
15408;SDS011;7803;48.130;13.788;2024-02-16T05:36:21;8.93;;;8.13;;
15408;SDS011;7803;48.130;13.788;2024-02-16T05:39:27;9.02;;;8.13;;
15408;SDS011;7803;48.130;13.788;2024-02-16T05:42:32;9.02;;;8.20;;
15408;SDS011;7803;48.130;13.788;2024-02-16T05:45:34;8.98;;;8.18;;
15408;SDS011;7803;48.130;13.788;2024-02-16T05:48:36;9.38;;;8.48;;
15408;SDS011;7803;48.130;13.788;2024-02-16T05:51:40;9.18;;;8.27;;
15408;SDS011;7803;48.130;13.788;2024-02-16T05:54:42;8.55;;;7.75;;
15408;SDS011;7803;48.130;13.788;2024-02-16T05:57:45;9.15;;;8.25;;
15408;SDS011;7803;48.130;13.788;2024-02-16T06:00:47;9.15;;;8.25;;
15408;SDS011;7803;48.130;13.788;2024-02-16T06:03:49;8.95;;;8.05;;
15408;SDS011;7803;48.130;13.788;2024-02-16T06:06:51;9.02;;;8.13;;
15408;SDS011;7803;48.130;13.788;2024-02-16T06:09:54;8.88;;;8.02;;
15408;SDS011;7803;48.130;13.788;2024-02-16T06:12:59;8.93;;;8.02;;
15408;SDS011;7803;48.130;13.788;2024-02-16T06:16:00;8.55;;;7.75;;
15408;SDS011;7803;48.130;13.788;2024-02-16T06:19:05;8.48;;;7.68;;
15408;SDS011;7803;48.130;13.788;2024-02-16T06:22:08;9.15;;;8.25;;
15408;SDS011;7803;48.130;13.788;2024-02-16T06:25:11;9.02;;;8.13;;
15408;SDS011;7803;48.130;13.788;2024-02-16T06:28:14;8.73;;;7.90;;
15408;SDS011;7803;48.130;13.788;2024-02-16T06:31:16;8.45;;;7.65;;
15408;SDS011;7803;48.130;13.788;2024-02-16T06:34:18;8.77;;;7.97;;
15408;SDS011;7803;48.130;13.788;2024-02-16T06:37:20;8.95;;;8.07;;
15408;SDS011;7803;48.130;13.788;2024-02-16T06:40:22;8.98;;;8.07;;
15408;SDS011;7803;48.130;13.788;2024-02-16T06:43:27;7.88;;;7.13;;
15408;SDS011;7803;48.130;13.788;2024-02-16T06:46:29;8.43;;;7.63;;
15408;SDS011;7803;48.130;13.788;2024-02-16T06:49:31;7.95;;;7.22;;
15408;SDS011;7803;48.130;13.788;2024-02-16T06:52:33;8.68;;;7.88;;
15408;SDS011;7803;48.130;13.788;2024-02-16T06:55:35;8.40;;;7.60;;
15408;SDS011;7803;48.130;13.788;2024-02-16T06:58:39;8.35;;;7.55;;
15408;SDS011;7803;48.130;13.788;2024-02-16T07:01:41;7.85;;;7.05;;
15408;SDS011;7803;48.130;13.788;2024-02-16T07:04:43;8.07;;;7.28;;
15408;SDS011;7803;48.130;13.788;2024-02-16T07:07:45;8.30;;;7.50;;
15408;SDS011;7803;48.130;13.788;2024-02-16T07:10:48;8.25;;;7.45;;
15408;SDS011;7803;48.130;13.788;2024-02-16T07:13:53;7.55;;;6.85;;
15408;SDS011;7803;48.130;13.788;2024-02-16T07:16:55;7.50;;;6.80;;
15408;SDS011;7803;48.130;13.788;2024-02-16T07:19:57;7.60;;;6.90;;
15408;SDS011;7803;48.130;13.788;2024-02-16T07:23:00;8.68;;;7.88;;
15408;SDS011;7803;48.130;13.788;2024-02-16T07:26:02;7.53;;;6.82;;
15408;SDS011;7803;48.130;13.788;2024-02-16T07:29:05;8.27;;;7.47;;
15408;SDS011;7803;48.130;13.788;2024-02-16T07:32:07;7.60;;;6.90;;
15408;SDS011;7803;48.130;13.788;2024-02-16T07:35:09;7.65;;;6.95;;
15408;SDS011;7803;48.130;13.788;2024-02-16T07:38:13;7.70;;;7.00;;
15408;SDS011;7803;48.130;13.788;2024-02-16T07:41:15;7.05;;;6.45;;
15408;SDS011;7803;48.130;13.788;2024-02-16T07:44:18;8.20;;;7.40;;
15408;SDS011;7803;48.130;13.788;2024-02-16T07:47:20;6.93;;;6.32;;
15408;SDS011;7803;48.130;13.788;2024-02-16T07:50:22;7.10;;;6.50;;
15408;SDS011;7803;48.130;13.788;2024-02-16T07:53:24;7.88;;;7.07;;
15408;SDS011;7803;48.130;13.788;2024-02-16T07:56:26;7.05;;;6.35;;
15408;SDS011;7803;48.130;13.788;2024-02-16T07:59:30;7.50;;;6.78;;
15408;SDS011;7803;48.130;13.788;2024-02-16T08:02:32;7.32;;;6.63;;
15408;SDS011;7803;48.130;13.788;2024-02-16T08:05:34;7.47;;;6.78;;
15408;SDS011;7803;48.130;13.788;2024-02-16T08:08:36;7.20;;;6.50;;
15408;SDS011;7803;48.130;13.788;2024-02-16T08:11:38;7.07;;;6.38;;
15408;SDS011;7803;48.130;13.788;2024-02-16T08:14:41;7.22;;;6.53;;
15408;SDS011;7803;48.130;13.788;2024-02-16T08:17:45;7.18;;;6.47;;
15408;SDS011;7803;48.130;13.788;2024-02-16T08:20:47;7.72;;;6.95;;
15408;SDS011;7803;48.130;13.788;2024-02-16T08:23:49;7.60;;;6.80;;
15408;SDS011;7803;48.130;13.788;2024-02-16T08:26:51;6.68;;;6.07;;
15408;SDS011;7803;48.130;13.788;2024-02-16T08:29:55;6.95;;;6.30;;
15408;SDS011;7803;48.130;13.788;2024-02-16T08:32:57;6.72;;;6.13;;
15408;SDS011;7803;48.130;13.788;2024-02-16T08:36:00;6.70;;;6.10;;
15408;SDS011;7803;48.130;13.788;2024-02-16T08:39:02;7.05;;;6.35;;
15408;SDS011;7803;48.130;13.788;2024-02-16T08:42:04;6.72;;;6.13;;
15408;SDS011;7803;48.130;13.788;2024-02-16T08:45:08;7.03;;;6.43;;
15408;SDS011;7803;48.130;13.788;2024-02-16T08:48:10;6.65;;;6.05;;
15408;SDS011;7803;48.130;13.788;2024-02-16T08:51:12;6.65;;;6.05;;
15408;SDS011;7803;48.130;13.788;2024-02-16T08:54:14;7.13;;;6.43;;
15408;SDS011;7803;48.130;13.788;2024-02-16T08:57:18;6.95;;;6.35;;
15408;SDS011;7803;48.130;13.788;2024-02-16T09:00:21;6.47;;;5.82;;
15408;SDS011;7803;48.130;13.788;2024-02-16T09:03:26;6.20;;;5.60;;
15408;SDS011;7803;48.130;13.788;2024-02-16T09:06:28;6.25;;;5.75;;
15408;SDS011;7803;48.130;13.788;2024-02-16T09:09:31;6.50;;;5.90;;
15408;SDS011;7803;48.130;13.788;2024-02-16T09:12:33;6.80;;;6.15;;
15408;SDS011;7803;48.130;13.788;2024-02-16T09:15:36;6.40;;;5.80;;
15408;SDS011;7803;48.130;13.788;2024-02-16T09:18:38;7.00;;;6.30;;
15408;SDS011;7803;48.130;13.788;2024-02-16T09:21:40;6.72;;;6.13;;
15408;SDS011;7803;48.130;13.788;2024-02-16T09:24:42;6.38;;;5.78;;
15408;SDS011;7803;48.130;13.788;2024-02-16T09:27:47;5.97;;;5.47;;
15408;SDS011;7803;48.130;13.788;2024-02-16T09:30:50;6.03;;;5.53;;
15408;SDS011;7803;48.130;13.788;2024-02-16T09:33:52;6.18;;;5.68;;
15408;SDS011;7803;48.130;13.788;2024-02-16T09:36:54;6.28;;;5.68;;
15408;SDS011;7803;48.130;13.788;2024-02-16T09:39:56;6.20;;;5.70;;
15408;SDS011;7803;48.130;13.788;2024-02-16T09:42:58;6.00;;;5.50;;
15408;SDS011;7803;48.130;13.788;2024-02-16T09:46:01;6.68;;;5.97;;
15408;SDS011;7803;48.130;13.788;2024-02-16T09:49:03;6.38;;;5.78;;
15408;SDS011;7803;48.130;13.788;2024-02-16T09:52:06;6.20;;;5.60;;
15408;SDS011;7803;48.130;13.788;2024-02-16T09:55:11;6.30;;;5.70;;
15408;SDS011;7803;48.130;13.788;2024-02-16T09:58:14;6.20;;;5.60;;
15408;SDS011;7803;48.130;13.788;2024-02-16T10:01:20;5.90;;;5.40;;
15408;SDS011;7803;48.130;13.788;2024-02-16T10:04:23;6.07;;;5.57;;
15408;SDS011;7803;48.130;13.788;2024-02-16T10:07:30;6.10;;;5.50;;
15408;SDS011;7803;48.130;13.788;2024-02-16T10:10:32;5.85;;;5.35;;
15408;SDS011;7803;48.130;13.788;2024-02-16T10:13:37;5.70;;;5.20;;
15408;SDS011;7803;48.130;13.788;2024-02-16T10:16:40;6.20;;;5.60;;
15408;SDS011;7803;48.130;13.788;2024-02-16T10:19:42;6.03;;;5.43;;
15408;SDS011;7803;48.130;13.788;2024-02-16T10:22:44;5.88;;;5.28;;
15408;SDS011;7803;48.130;13.788;2024-02-16T10:25:46;5.72;;;5.22;;
15408;SDS011;7803;48.130;13.788;2024-02-16T10:28:48;5.38;;;4.85;;
15408;SDS011;7803;48.130;13.788;2024-02-16T10:31:53;6.05;;;5.45;;
15408;SDS011;7803;48.130;13.788;2024-02-16T10:34:55;5.70;;;5.20;;
15408;SDS011;7803;48.130;13.788;2024-02-16T10:37:59;5.50;;;5.00;;
15408;SDS011;7803;48.130;13.788;2024-02-16T10:41:04;5.60;;;5.10;;
15408;SDS011;7803;48.130;13.788;2024-02-16T10:44:08;5.60;;;5.10;;
15408;SDS011;7803;48.130;13.788;2024-02-16T10:47:12;5.50;;;5.00;;
15408;SDS011;7803;48.130;13.788;2024-02-16T10:50:14;5.53;;;5.03;;
15408;SDS011;7803;48.130;13.788;2024-02-16T10:53:18;5.55;;;5.05;;
15408;SDS011;7803;48.130;13.788;2024-02-16T10:56:27;6.05;;;5.47;;
15408;SDS011;7803;48.130;13.788;2024-02-16T10:59:37;5.70;;;5.20;;
15408;SDS011;7803;48.130;13.788;2024-02-16T11:02:55;5.50;;;5.00;;
15408;SDS011;7803;48.130;13.788;2024-02-16T11:05:59;5.40;;;4.90;;
15408;SDS011;7803;48.130;13.788;2024-02-16T11:09:01;5.47;;;4.90;;
15408;SDS011;7803;48.130;13.788;2024-02-16T11:12:08;5.30;;;4.82;;
15408;SDS011;7803;48.130;13.788;2024-02-16T11:15:12;5.43;;;4.93;;
15408;SDS011;7803;48.130;13.788;2024-02-16T11:18:16;5.40;;;4.90;;
15408;SDS011;7803;48.130;13.788;2024-02-16T11:21:18;5.95;;;5.35;;
15408;SDS011;7803;48.130;13.788;2024-02-16T11:24:20;5.60;;;5.10;;
15408;SDS011;7803;48.130;13.788;2024-02-16T11:27:31;5.50;;;5.00;;
15408;SDS011;7803;48.130;13.788;2024-02-16T11:30:34;5.45;;;4.95;;
15408;SDS011;7803;48.130;13.788;2024-02-16T11:33:42;5.40;;;4.90;;
15408;SDS011;7803;48.130;13.788;2024-02-16T11:36:45;4.80;;;4.40;;
15408;SDS011;7803;48.130;13.788;2024-02-16T11:39:47;5.30;;;4.82;;
15408;SDS011;7803;48.130;13.788;2024-02-16T11:42:59;5.22;;;4.72;;
15408;SDS011;7803;48.130;13.788;2024-02-16T11:46:10;5.30;;;4.80;;
15408;SDS011;7803;48.130;13.788;2024-02-16T11:49:14;5.20;;;4.70;;
15408;SDS011;7803;48.130;13.788;2024-02-16T11:52:18;5.15;;;4.68;;
15408;SDS011;7803;48.130;13.788;2024-02-16T11:55:21;5.50;;;4.82;;
15408;SDS011;7803;48.130;13.788;2024-02-16T11:58:23;5.13;;;4.63;;
15408;SDS011;7803;48.130;13.788;2024-02-16T12:01:25;5.35;;;4.85;;
15408;SDS011;7803;48.130;13.788;2024-02-16T12:04:29;5.43;;;4.93;;
15408;SDS011;7803;48.130;13.788;2024-02-16T12:07:32;5.15;;;4.68;;
15408;SDS011;7803;48.130;13.788;2024-02-16T12:10:34;5.22;;;4.75;;
15408;SDS011;7803;48.130;13.788;2024-02-16T12:13:39;5.05;;;4.43;;
15408;SDS011;7803;48.130;13.788;2024-02-16T12:16:41;5.00;;;4.60;;
15408;SDS011;7803;48.130;13.788;2024-02-16T12:19:44;5.00;;;4.60;;
15408;SDS011;7803;48.130;13.788;2024-02-16T12:22:47;4.78;;;4.38;;
15408;SDS011;7803;48.130;13.788;2024-02-16T12:25:49;5.20;;;4.70;;
15408;SDS011;7803;48.130;13.788;2024-02-16T12:28:51;5.20;;;4.70;;
15408;SDS011;7803;48.130;13.788;2024-02-16T12:31:53;5.13;;;4.65;;
15408;SDS011;7803;48.130;13.788;2024-02-16T12:34:56;5.00;;;4.60;;
15408;SDS011;7803;48.130;13.788;2024-02-16T12:37:58;4.97;;;4.57;;
15408;SDS011;7803;48.130;13.788;2024-02-16T12:41:00;5.10;;;4.60;;
15408;SDS011;7803;48.130;13.788;2024-02-16T12:44:02;5.13;;;4.70;;
15408;SDS011;7803;48.130;13.788;2024-02-16T12:47:04;4.90;;;4.50;;
15408;SDS011;7803;48.130;13.788;2024-02-16T12:50:08;5.20;;;4.70;;
15408;SDS011;7803;48.130;13.788;2024-02-16T12:53:10;5.10;;;4.60;;
15408;SDS011;7803;48.130;13.788;2024-02-16T12:56:12;4.78;;;4.32;;
15408;SDS011;7803;48.130;13.788;2024-02-16T12:59:14;5.18;;;4.60;;
15408;SDS011;7803;48.130;13.788;2024-02-16T13:02:16;4.93;;;4.53;;
15408;SDS011;7803;48.130;13.788;2024-02-16T13:05:20;4.63;;;4.22;;
15408;SDS011;7803;48.130;13.788;2024-02-16T13:08:22;4.85;;;4.45;;
15408;SDS011;7803;48.130;13.788;2024-02-16T13:11:24;4.47;;;4.07;;
15408;SDS011;7803;48.130;13.788;2024-02-16T13:14:26;5.25;;;4.53;;
15408;SDS011;7803;48.130;13.788;2024-02-16T13:17:28;4.70;;;4.30;;
15408;SDS011;7803;48.130;13.788;2024-02-16T13:20:32;5.15;;;4.63;;
15408;SDS011;7803;48.130;13.788;2024-02-16T13:23:35;5.10;;;4.60;;
15408;SDS011;7803;48.130;13.788;2024-02-16T13:26:37;4.75;;;4.35;;
15408;SDS011;7803;48.130;13.788;2024-02-16T13:29:39;4.70;;;4.30;;
15408;SDS011;7803;48.130;13.788;2024-02-16T13:32:41;4.60;;;4.20;;
15408;SDS011;7803;48.130;13.788;2024-02-16T13:35:44;4.85;;;4.45;;
15408;SDS011;7803;48.130;13.788;2024-02-16T13:38:46;5.30;;;4.80;;
15408;SDS011;7803;48.130;13.788;2024-02-16T13:41:48;4.82;;;4.43;;
15408;SDS011;7803;48.130;13.788;2024-02-16T13:44:51;5.05;;;4.55;;
15408;SDS011;7803;48.130;13.788;2024-02-16T13:47:53;4.90;;;4.40;;
15408;SDS011;7803;48.130;13.788;2024-02-16T13:50:58;5.03;;;4.50;;
15408;SDS011;7803;48.130;13.788;2024-02-16T13:54:01;4.90;;;4.47;;
15408;SDS011;7803;48.130;13.788;2024-02-16T13:57:03;4.30;;;3.90;;
15408;SDS011;7803;48.130;13.788;2024-02-16T14:00:06;4.40;;;4.00;;
15408;SDS011;7803;48.130;13.788;2024-02-16T14:03:09;4.55;;;4.15;;
15408;SDS011;7803;48.130;13.788;2024-02-16T14:06:13;5.05;;;4.55;;
15408;SDS011;7803;48.130;13.788;2024-02-16T14:09:15;4.90;;;4.50;;
15408;SDS011;7803;48.130;13.788;2024-02-16T14:12:17;4.60;;;4.20;;
15408;SDS011;7803;48.130;13.788;2024-02-16T14:15:19;4.60;;;4.20;;
15408;SDS011;7803;48.130;13.788;2024-02-16T14:18:21;5.20;;;4.70;;
15408;SDS011;7803;48.130;13.788;2024-02-16T14:21:25;5.25;;;4.60;;
15408;SDS011;7803;48.130;13.788;2024-02-16T14:24:27;5.18;;;4.68;;
15408;SDS011;7803;48.130;13.788;2024-02-16T14:27:29;5.35;;;4.85;;
15408;SDS011;7803;48.130;13.788;2024-02-16T14:30:30;5.25;;;4.75;;
15408;SDS011;7803;48.130;13.788;2024-02-16T14:33:33;5.70;;;5.20;;
15408;SDS011;7803;48.130;13.788;2024-02-16T14:36:37;5.88;;;5.28;;
15408;SDS011;7803;48.130;13.788;2024-02-16T14:39:39;5.60;;;5.10;;
15408;SDS011;7803;48.130;13.788;2024-02-16T14:42:41;5.88;;;5.38;;
15408;SDS011;7803;48.130;13.788;2024-02-16T14:45:43;6.03;;;5.43;;
15408;SDS011;7803;48.130;13.788;2024-02-16T14:48:45;6.05;;;5.45;;
15408;SDS011;7803;48.130;13.788;2024-02-16T14:51:49;6.07;;;5.55;;
15408;SDS011;7803;48.130;13.788;2024-02-16T14:54:52;6.45;;;5.95;;
15408;SDS011;7803;48.130;13.788;2024-02-16T14:57:55;6.65;;;6.05;;
15408;SDS011;7803;48.130;13.788;2024-02-16T15:00:57;6.60;;;6.00;;
15408;SDS011;7803;48.130;13.788;2024-02-16T15:03:59;6.60;;;6.00;;
15408;SDS011;7803;48.130;13.788;2024-02-16T15:07:03;6.93;;;6.32;;
15408;SDS011;7803;48.130;13.788;2024-02-16T15:10:06;6.88;;;6.28;;
15408;SDS011;7803;48.130;13.788;2024-02-16T15:13:08;7.38;;;6.68;;
15408;SDS011;7803;48.130;13.788;2024-02-16T15:16:12;7.90;;;7.10;;
15408;SDS011;7803;48.130;13.788;2024-02-16T15:19:14;7.90;;;7.20;;
15408;SDS011;7803;48.130;13.788;2024-02-16T15:22:17;7.68;;;6.97;;
15408;SDS011;7803;48.130;13.788;2024-02-16T15:25:19;7.82;;;7.13;;
15408;SDS011;7803;48.130;13.788;2024-02-16T15:28:21;7.65;;;6.97;;
15408;SDS011;7803;48.130;13.788;2024-02-16T15:31:23;7.35;;;6.65;;
15408;SDS011;7803;48.130;13.788;2024-02-16T15:34:25;7.78;;;7.07;;
15408;SDS011;7803;48.130;13.788;2024-02-16T15:37:29;8.15;;;7.45;;
15408;SDS011;7803;48.130;13.788;2024-02-16T15:40:31;8.60;;;7.80;;
15408;SDS011;7803;48.130;13.788;2024-02-16T15:43:33;9.27;;;8.38;;
15408;SDS011;7803;48.130;13.788;2024-02-16T15:46:35;8.80;;;8.00;;
15408;SDS011;7803;48.130;13.788;2024-02-16T15:49:40;9.02;;;8.15;;
15408;SDS011;7803;48.130;13.788;2024-02-16T15:52:43;9.10;;;8.30;;
15408;SDS011;7803;48.130;13.788;2024-02-16T15:55:45;9.20;;;8.40;;
15408;SDS011;7803;48.130;13.788;2024-02-16T15:58:47;9.35;;;8.55;;
15408;SDS011;7803;48.130;13.788;2024-02-16T16:01:51;9.15;;;8.30;;
15408;SDS011;7803;48.130;13.788;2024-02-16T16:04:53;9.25;;;8.38;;
15408;SDS011;7803;48.130;13.788;2024-02-16T16:07:56;9.35;;;8.45;;
15408;SDS011;7803;48.130;13.788;2024-02-16T16:10:58;9.07;;;8.20;;
15408;SDS011;7803;48.130;13.788;2024-02-16T16:14:02;9.00;;;8.20;;
15408;SDS011;7803;48.130;13.788;2024-02-16T16:17:04;9.48;;;8.57;;
15408;SDS011;7803;48.130;13.788;2024-02-16T16:20:07;9.75;;;8.85;;
15408;SDS011;7803;48.130;13.788;2024-02-16T16:23:11;9.50;;;8.60;;
15408;SDS011;7803;48.130;13.788;2024-02-16T16:26:13;9.90;;;8.90;;
15408;SDS011;7803;48.130;13.788;2024-02-16T16:29:15;9.93;;;9.02;;
15408;SDS011;7803;48.130;13.788;2024-02-16T16:32:17;9.32;;;8.43;;
15408;SDS011;7803;48.130;13.788;2024-02-16T16:35:19;9.35;;;8.45;;
15408;SDS011;7803;48.130;13.788;2024-02-16T16:38:23;9.10;;;8.30;;
15408;SDS011;7803;48.130;13.788;2024-02-16T16:41:25;9.68;;;8.77;;
15408;SDS011;7803;48.130;13.788;2024-02-16T16:44:27;9.93;;;9.02;;
15408;SDS011;7803;48.130;13.788;2024-02-16T16:47:29;9.50;;;8.60;;
15408;SDS011;7803;48.130;13.788;2024-02-16T16:50:31;10.00;;;9.10;;
15408;SDS011;7803;48.130;13.788;2024-02-16T16:53:34;9.68;;;8.77;;
15408;SDS011;7803;48.130;13.788;2024-02-16T16:56:36;9.95;;;9.05;;
15408;SDS011;7803;48.130;13.788;2024-02-16T16:59:38;9.50;;;8.60;;
15408;SDS011;7803;48.130;13.788;2024-02-16T17:02:40;9.95;;;9.05;;
15408;SDS011;7803;48.130;13.788;2024-02-16T17:05:42;9.65;;;8.75;;
15408;SDS011;7803;48.130;13.788;2024-02-16T17:08:47;9.90;;;8.95;;
15408;SDS011;7803;48.130;13.788;2024-02-16T17:11:49;9.77;;;8.85;;
15408;SDS011;7803;48.130;13.788;2024-02-16T17:14:51;9.55;;;8.73;;
15408;SDS011;7803;48.130;13.788;2024-02-16T17:17:53;10.00;;;9.10;;
15408;SDS011;7803;48.130;13.788;2024-02-16T17:20:55;9.80;;;8.90;;
15408;SDS011;7803;48.130;13.788;2024-02-16T17:23:59;9.85;;;8.95;;
15408;SDS011;7803;48.130;13.788;2024-02-16T17:27:00;9.45;;;8.65;;
15408;SDS011;7803;48.130;13.788;2024-02-16T17:30:03;9.38;;;8.50;;
15408;SDS011;7803;48.130;13.788;2024-02-16T17:33:06;9.50;;;8.70;;
15408;SDS011;7803;48.130;13.788;2024-02-16T17:36:08;9.82;;;8.88;;
15408;SDS011;7803;48.130;13.788;2024-02-16T17:39:13;9.60;;;8.70;;
15408;SDS011;7803;48.130;13.788;2024-02-16T17:42:15;10.15;;;9.15;;
15408;SDS011;7803;48.130;13.788;2024-02-16T17:45:17;9.30;;;8.50;;
15408;SDS011;7803;48.130;13.788;2024-02-16T17:48:21;9.55;;;8.65;;
15408;SDS011;7803;48.130;13.788;2024-02-16T17:51:27;9.43;;;8.55;;
15408;SDS011;7803;48.130;13.788;2024-02-16T17:54:30;9.10;;;8.30;;
15408;SDS011;7803;48.130;13.788;2024-02-16T17:57:32;9.43;;;8.52;;
15408;SDS011;7803;48.130;13.788;2024-02-16T18:00:35;8.93;;;8.13;;
15408;SDS011;7803;48.130;13.788;2024-02-16T18:03:37;8.90;;;8.10;;
15408;SDS011;7803;48.130;13.788;2024-02-16T18:06:39;8.48;;;7.68;;
15408;SDS011;7803;48.130;13.788;2024-02-16T18:09:43;9.48;;;8.57;;
15408;SDS011;7803;48.130;13.788;2024-02-16T18:12:45;9.43;;;8.52;;
15408;SDS011;7803;48.130;13.788;2024-02-16T18:15:48;9.20;;;8.40;;
15408;SDS011;7803;48.130;13.788;2024-02-16T18:18:50;8.98;;;8.18;;
15408;SDS011;7803;48.130;13.788;2024-02-16T18:21:53;9.18;;;8.38;;